createdAt,value
2017-06-08T00:00:49.692Z,94.45
2017-06-08T00:01:49.362Z,93.98
2017-06-08T00:02:49.652Z,94.45
2017-06-08T00:03:49.633Z,94.45
2017-06-08T00:04:49.611Z,93.98
2017-06-08T00:05:49.612Z,94.26
2017-06-08T00:06:49.575Z,93.88
2017-06-08T00:07:49.573Z,93.98
2017-06-08T00:08:49.541Z,94.21
2017-06-08T00:09:49.525Z,94.17
2017-06-08T00:10:49.512Z,94.26
2017-06-08T00:11:49.488Z,94.65
2017-06-08T00:12:49.471Z,94.26
2017-06-08T00:13:49.454Z,94.26
2017-06-08T00:14:49.440Z,93.79
2017-06-08T00:15:49.110Z,94.07
2017-06-08T00:16:49.411Z,93.98
2017-06-08T00:17:49.373Z,94.17
2017-06-08T00:18:49.362Z,93.4
2017-06-08T00:19:49.093Z,93.3
2017-06-08T00:20:49.011Z,93.4
2017-06-08T00:21:49.315Z,93.59
2017-06-08T00:22:49.284Z,93.4
2017-06-08T00:23:49.262Z,93.02
2017-06-08T00:24:49.242Z,92.92
2017-06-08T00:25:49.242Z,93.12
2017-06-08T00:26:49.213Z,92.44
2017-06-08T00:27:48.885Z,92.83
2017-06-08T00:28:48.956Z,93.12
2017-06-08T00:29:48.851Z,93.5
2017-06-08T00:30:49.157Z,93.45
2017-06-08T00:31:48.821Z,92.83
2017-06-08T00:32:48.796Z,92.83
2017-06-08T00:33:49.079Z,93.12
2017-06-08T00:34:49.070Z,93.59
2017-06-08T00:35:48.741Z,93.3
2017-06-08T00:36:49.033Z,92.73
2017-06-08T00:37:49.016Z,92.63
2017-06-08T00:38:48.996Z,92.3
2017-06-08T00:39:48.971Z,92.54
2017-06-08T00:40:48.650Z,92.16
2017-06-08T00:41:48.953Z,92.25
2017-06-08T00:42:48.615Z,92.06
2017-06-08T00:43:48.598Z,91.68
2017-06-08T00:44:48.592Z,91.2
2017-06-08T00:45:48.872Z,91.2
2017-06-08T00:46:48.541Z,91.01
2017-06-08T00:47:48.530Z,90.34
2017-06-08T00:48:48.811Z,90.44
2017-06-08T00:49:48.804Z,90.44
2017-06-08T00:50:48.778Z,90.24
2017-06-08T00:51:48.765Z,89.58
2017-06-08T00:52:48.744Z,89.67
2017-06-08T00:53:48.414Z,89.38
2017-06-08T00:54:48.397Z,89.29
2017-06-08T00:55:48.681Z,89.29
2017-06-08T00:56:48.667Z,89.48
2017-06-08T00:57:48.652Z,89.58
2017-06-08T00:58:48.321Z,89.67
2017-06-08T00:59:48.301Z,89.86
2017-06-08T01:00:48.590Z,89.48
2017-06-08T01:01:48.278Z,89.72
2017-06-08T01:02:48.563Z,89.29
2017-06-08T01:03:48.542Z,89.23
2017-06-08T01:04:48.212Z,89.04
2017-06-08T01:05:48.195Z,89.33
2017-06-08T01:06:48.493Z,89.33
2017-06-08T01:07:48.471Z,89.33
2017-06-08T01:08:48.453Z,89.48
2017-06-08T01:09:48.430Z,89.43
2017-06-08T01:10:48.111Z,89.76
2017-06-08T01:11:48.397Z,89.76
2017-06-08T01:12:48.371Z,89.58
2017-06-08T01:13:48.364Z,89.76
2017-06-08T01:14:48.342Z,89.67
2017-06-08T01:15:48.322Z,89.76
2017-06-08T01:16:48.312Z,89.67
2017-06-08T01:17:47.989Z,89.52
2017-06-08T01:18:48.268Z,89.58
2017-06-08T01:19:48.262Z,89.81
2017-06-08T01:20:48.229Z,89.9
2017-06-08T01:21:47.958Z,89.81
2017-06-08T01:22:47.899Z,89.14
2017-06-08T01:23:48.174Z,89.14
2017-06-08T01:24:48.161Z,90.05
2017-06-08T01:25:48.144Z,89.95
2017-06-08T01:26:48.133Z,90.34
2017-06-08T01:27:48.128Z,90.34
2017-06-08T01:28:47.784Z,90.44
2017-06-08T01:29:47.763Z,90.24
2017-06-08T01:30:48.057Z,90.72
2017-06-08T01:31:48.049Z,91.11
2017-06-08T01:32:48.022Z,90.82
2017-06-08T01:33:48.004Z,91.11
2017-06-08T01:34:47.980Z,91.01
2017-06-08T01:35:47.963Z,91.3
2017-06-08T01:36:47.945Z,90.91
2017-06-08T01:37:47.931Z,91.01
2017-06-08T01:38:47.915Z,91.39
2017-06-08T01:39:47.892Z,91.58
2017-06-08T01:40:47.871Z,91.58
2017-06-08T01:41:47.863Z,91.68
2017-06-08T01:42:47.592Z,91.68
2017-06-08T01:43:47.821Z,91.68
2017-06-08T01:44:47.803Z,91.68
2017-06-08T01:45:47.488Z,91.58
2017-06-08T01:46:47.761Z,91.68
2017-06-08T01:47:47.441Z,91.39
2017-06-08T01:48:47.742Z,91.68
2017-06-08T01:49:47.408Z,91.49
2017-06-08T01:50:47.807Z,91.2
2017-06-08T01:51:47.671Z,91.3
2017-06-08T01:52:47.662Z,91.49
2017-06-08T01:53:47.639Z,91.58
2017-06-08T01:54:47.622Z,91.58
2017-06-08T01:55:47.293Z,91.87
2017-06-08T01:56:47.591Z,92.06
2017-06-08T01:57:47.575Z,92.06
2017-06-08T01:58:47.250Z,92.06
2017-06-08T01:59:47.529Z,92.16
2017-06-08T02:00:47.214Z,92.35
2017-06-08T02:01:47.193Z,92.73
2017-06-08T02:02:47.270Z,92.44
2017-06-08T02:03:47.461Z,92.35
2017-06-08T02:04:47.291Z,92.25
2017-06-08T02:05:47.112Z,92.44
2017-06-08T02:06:47.400Z,92.54
2017-06-08T02:07:47.384Z,92.88
2017-06-08T02:08:47.371Z,92.69
2017-06-08T02:09:47.341Z,92.69
2017-06-08T02:10:47.342Z,92.63
2017-06-08T02:11:47.311Z,92.25
2017-06-08T02:12:47.021Z,92.54
2017-06-08T02:13:46.968Z,92.54
2017-06-08T02:14:47.370Z,92.73
2017-06-08T02:15:47.243Z,92.73
2017-06-08T02:16:47.301Z,92.73
2017-06-08T02:17:47.221Z,92.59
2017-06-08T02:18:46.882Z,92.78
2017-06-08T02:19:47.168Z,92.63
2017-06-08T02:20:46.887Z,93.21
2017-06-08T02:21:47.141Z,92.63
2017-06-08T02:22:47.122Z,92.83
2017-06-08T02:23:47.093Z,92.97
2017-06-08T02:24:46.762Z,92.92
2017-06-08T02:25:47.052Z,93.02
2017-06-08T02:26:47.052Z,92.97
2017-06-08T02:27:47.016Z,93.12
2017-06-08T02:28:46.690Z,93.21
2017-06-08T02:29:47.002Z,93.21
2017-06-08T02:30:46.962Z,93.55
2017-06-08T02:31:46.956Z,93.45
2017-06-08T02:32:46.927Z,93.35
2017-06-08T02:33:46.649Z,93.55
2017-06-08T02:34:46.599Z,94.02
2017-06-08T02:35:46.571Z,94.21
2017-06-08T02:36:46.852Z,93.55
2017-06-08T02:37:46.594Z,93.5
2017-06-08T02:38:46.537Z,94.02
2017-06-08T02:39:46.867Z,94.21
2017-06-08T02:40:46.482Z,94.02
2017-06-08T02:41:46.808Z,93.93
2017-06-08T02:42:46.752Z,94.31
2017-06-08T02:43:46.745Z,93.64
2017-06-08T02:44:46.727Z,93.5
2017-06-08T02:45:46.393Z,93.59
2017-06-08T02:46:46.367Z,94.17
2017-06-08T02:47:46.651Z,94.17
2017-06-08T02:48:46.664Z,94.17
2017-06-08T02:49:46.622Z,93.98
2017-06-08T02:50:46.602Z,93.59
2017-06-08T02:51:46.283Z,93.79
2017-06-08T02:52:46.573Z,93.98
2017-06-08T02:53:46.551Z,94.07
2017-06-08T02:54:46.540Z,93.88
2017-06-08T02:55:46.512Z,93.98
2017-06-08T02:56:46.501Z,94.07
2017-06-08T02:57:46.174Z,94.26
2017-06-08T02:58:46.147Z,93.98
2017-06-08T02:59:46.435Z,94.07
2017-06-08T03:00:46.432Z,94.07
2017-06-08T03:01:46.403Z,94.26
2017-06-08T03:02:46.389Z,93.88
2017-06-08T03:03:46.057Z,94.07
2017-06-08T03:04:46.359Z,93.98
2017-06-08T03:05:46.327Z,94.45
2017-06-08T03:06:46.010Z,94.26
2017-06-08T03:07:46.298Z,94.26
2017-06-08T03:08:46.268Z,94.26
2017-06-08T03:09:46.254Z,94.26
2017-06-08T03:10:46.235Z,94.26
2017-06-08T03:11:46.225Z,94.45
2017-06-08T03:12:45.971Z,94.36
2017-06-08T03:13:45.887Z,94.26
2017-06-08T03:14:46.274Z,94.36
2017-06-08T03:15:46.142Z,94.26
2017-06-08T03:16:46.161Z,94.45
2017-06-08T03:17:46.114Z,94.74
2017-06-08T03:18:45.791Z,94.74
2017-06-08T03:19:46.072Z,94.55
2017-06-08T03:20:46.064Z,94.65
2017-06-08T03:21:46.041Z,94.74
2017-06-08T03:22:46.053Z,94.45
2017-06-08T03:23:46.011Z,94.36
2017-06-08T03:24:45.989Z,94.07
2017-06-08T03:25:45.670Z,93.98
2017-06-08T03:26:45.701Z,94.02
2017-06-08T03:27:45.621Z,93.69
2017-06-08T03:28:46.006Z,94.31
2017-06-08T03:29:45.952Z,94.4
2017-06-08T03:30:45.974Z,94.6
2017-06-08T03:31:45.879Z,94.6
2017-06-08T03:32:45.974Z,94.6
2017-06-08T03:33:45.821Z,94.5
2017-06-08T03:34:45.856Z,93.83
2017-06-08T03:35:45.526Z,93.64
2017-06-08T03:36:45.813Z,94.21
2017-06-08T03:37:45.854Z,94.21
2017-06-08T03:38:45.738Z,94.02
2017-06-08T03:39:45.729Z,94.02
2017-06-08T03:40:45.858Z,94.12
2017-06-08T03:41:45.892Z,93.74
2017-06-08T03:42:45.777Z,94.21
2017-06-08T03:43:45.666Z,94.31
2017-06-08T03:44:45.653Z,94.02
2017-06-08T03:45:45.303Z,94.21
2017-06-08T03:46:45.724Z,94.12
2017-06-08T03:47:45.580Z,94.02
2017-06-08T03:48:45.572Z,94.12
2017-06-08T03:49:45.226Z,94.31
2017-06-08T03:50:45.597Z,94.12
2017-06-08T03:51:45.496Z,94.69
2017-06-08T03:52:45.531Z,95.46
2017-06-08T03:53:45.659Z,95.56
2017-06-08T03:54:45.469Z,95.65
2017-06-08T03:55:45.130Z,95.84
2017-06-08T03:56:45.141Z,95.84
2017-06-08T03:57:45.393Z,96.03
2017-06-08T03:58:45.091Z,96.22
2017-06-08T03:59:45.476Z,96.61
2017-06-08T04:00:45.344Z,96.84
2017-06-08T04:01:45.013Z,96.8
2017-06-08T04:02:45.304Z,96.89
2017-06-08T04:03:45.290Z,97.13
2017-06-08T04:04:45.281Z,97.33
2017-06-08T04:05:44.947Z,97.71
2017-06-08T04:06:45.244Z,97.8
2017-06-08T04:07:45.210Z,98.19
2017-06-08T04:08:45.201Z,98.66
2017-06-08T04:09:45.185Z,98.66
2017-06-08T04:10:45.167Z,99.43
2017-06-08T04:11:44.832Z,99.81
2017-06-08T04:12:45.121Z,99.99
2017-06-08T04:13:44.801Z,99.72
2017-06-08T04:14:44.780Z,99.91
2017-06-08T04:15:44.763Z,99.99
2017-06-08T04:16:44.747Z,99.99
2017-06-08T04:17:44.729Z,99.99
2017-06-08T04:18:44.714Z,99.99
2017-06-08T04:19:45.050Z,99.99
2017-06-08T04:20:44.682Z,99.99
2017-06-08T04:21:44.661Z,99.99
2017-06-08T04:22:44.948Z,99.99
2017-06-08T04:23:44.948Z,99.99
2017-06-08T04:24:44.600Z,99.99
2017-06-08T04:25:44.902Z,99.99
2017-06-08T04:26:44.871Z,99.99
2017-06-08T04:27:44.563Z,99.99
2017-06-08T04:28:44.857Z,99.99
2017-06-08T04:29:44.810Z,99.99
2017-06-08T04:30:44.496Z,99.99
2017-06-08T04:31:44.480Z,99.99
2017-06-08T04:32:44.471Z,99.99
2017-06-08T04:33:44.742Z,99.99
2017-06-08T04:34:44.423Z,99.99
2017-06-08T04:35:44.714Z,99.99
2017-06-08T04:36:44.690Z,99.99
2017-06-08T04:37:44.670Z,99.99
2017-06-08T04:38:44.651Z,99.99
2017-06-08T04:39:44.629Z,99.99
2017-06-08T04:40:44.300Z,99.99
2017-06-08T04:41:44.599Z,99.99
2017-06-08T04:42:44.590Z,99.99
2017-06-08T04:43:44.258Z,99.99
2017-06-08T04:44:44.550Z,99.99
2017-06-08T04:45:44.524Z,99.99
2017-06-08T04:46:44.503Z,99.99
2017-06-08T04:47:44.202Z,99.99
2017-06-08T04:48:44.471Z,99.99
2017-06-08T04:49:44.450Z,99.99
2017-06-08T04:50:44.481Z,99.99
2017-06-08T04:51:44.109Z,99.99
2017-06-08T04:52:44.089Z,99.99
2017-06-08T04:53:44.120Z,99.99
2017-06-08T04:54:44.054Z,99.99
2017-06-08T04:55:44.356Z,99.99
2017-06-08T04:56:44.331Z,99.99
2017-06-08T04:57:44.301Z,99.99
2017-06-08T04:58:44.279Z,99.99
2017-06-08T04:59:44.270Z,99.99
2017-06-08T05:00:44.242Z,99.99
2017-06-08T05:01:43.928Z,99.99
2017-06-08T05:02:44.222Z,99.99
2017-06-08T05:03:44.188Z,99.99
2017-06-08T05:04:44.180Z,99.99
2017-06-08T05:05:43.849Z,99.99
2017-06-08T05:06:44.147Z,99.99
2017-06-08T05:07:43.813Z,99.99
2017-06-08T05:08:43.790Z,99.99
2017-06-08T05:09:43.778Z,99.99
2017-06-08T05:10:44.066Z,99.99
2017-06-08T05:11:44.051Z,99.99
2017-06-08T05:12:43.720Z,99.99
2017-06-08T05:13:44.050Z,99.99
2017-06-08T05:14:43.989Z,99.99
2017-06-08T05:15:43.968Z,99.99
2017-06-08T05:16:43.952Z,99.99
2017-06-08T05:17:43.628Z,99.99
2017-06-08T05:18:43.607Z,99.99
2017-06-08T05:19:43.898Z,99.99
2017-06-08T05:20:43.579Z,99.99
2017-06-08T05:21:43.557Z,99.99
2017-06-08T05:22:43.548Z,99.99
2017-06-08T05:23:43.834Z,99.99
2017-06-08T05:24:43.501Z,99.99
2017-06-08T05:25:43.480Z,99.99
2017-06-08T05:26:43.769Z,99.99
2017-06-08T05:27:43.740Z,99.99
2017-06-08T05:28:43.737Z,99.99
2017-06-08T05:29:43.819Z,99.99
2017-06-08T05:30:43.691Z,99.99
2017-06-08T05:31:43.368Z,99.99
2017-06-08T05:32:43.360Z,99.99
2017-06-08T05:33:43.679Z,99.99
2017-06-08T05:34:43.310Z,99.99
2017-06-08T05:35:43.601Z,99.99
2017-06-08T05:36:43.303Z,99.99
2017-06-08T05:37:43.625Z,99.99
2017-06-08T05:38:43.241Z,99.99
2017-06-08T05:39:43.220Z,99.99
2017-06-08T05:40:43.206Z,99.99
2017-06-08T05:41:43.191Z,99.99
2017-06-08T05:42:43.480Z,99.99
2017-06-08T05:43:43.487Z,99.99
2017-06-08T05:44:43.138Z,99.99
2017-06-08T05:45:43.117Z,99.99
2017-06-08T05:46:43.405Z,99.99
2017-06-08T05:47:43.071Z,99.99
2017-06-08T05:48:43.092Z,99.99
2017-06-08T05:49:43.353Z,99.99
2017-06-08T05:50:43.335Z,99.99
2017-06-08T05:51:43.357Z,99.99
2017-06-08T05:52:43.297Z,99.99
2017-06-08T05:53:43.281Z,99.99
2017-06-08T05:54:43.266Z,99.99
2017-06-08T05:55:43.298Z,99.99
2017-06-08T05:56:43.230Z,99.99
2017-06-08T05:57:43.201Z,99.99
2017-06-08T05:58:42.880Z,99.99
2017-06-08T05:59:43.182Z,99.99
2017-06-08T06:00:43.151Z,99.99
2017-06-08T06:01:42.825Z,99.99
2017-06-08T06:02:42.810Z,99.99
2017-06-08T06:03:42.795Z,99.99
2017-06-08T06:04:43.086Z,99.99
2017-06-08T06:05:43.060Z,99.99
2017-06-08T06:06:43.049Z,99.99
2017-06-08T06:07:42.725Z,99.99
2017-06-08T06:08:43.012Z,99.99
2017-06-08T06:09:43.002Z,99.99
2017-06-08T06:10:42.977Z,99.99
2017-06-08T06:11:42.972Z,99.99
2017-06-08T06:12:42.636Z,99.99
2017-06-08T06:13:42.939Z,99.99
2017-06-08T06:14:42.604Z,99.99
2017-06-08T06:15:42.898Z,99.99
2017-06-08T06:16:42.871Z,99.99
2017-06-08T06:17:42.860Z,99.99
2017-06-08T06:18:42.831Z,99.99
2017-06-08T06:19:42.520Z,99.99
2017-06-08T06:20:42.801Z,99.99
2017-06-08T06:21:42.474Z,99.99
2017-06-08T06:22:42.817Z,99.99
2017-06-08T06:23:42.751Z,99.99
2017-06-08T06:24:42.427Z,99.99
2017-06-08T06:25:42.711Z,99.99
2017-06-08T06:26:42.701Z,99.99
2017-06-08T06:27:42.686Z,99.99
2017-06-08T06:28:42.352Z,99.99
2017-06-08T06:29:42.638Z,99.99
2017-06-08T06:30:42.630Z,99.99
2017-06-08T06:31:42.610Z,99.99
2017-06-08T06:32:42.595Z,99.99
2017-06-08T06:33:42.572Z,99.99
2017-06-08T06:34:42.561Z,99.99
2017-06-08T06:35:42.248Z,99.99
2017-06-08T06:36:42.521Z,99.99
2017-06-08T06:37:42.510Z,99.99
2017-06-08T06:38:42.494Z,99.99
2017-06-08T06:39:42.472Z,99.99
2017-06-08T06:40:42.449Z,99.99
2017-06-08T06:41:42.139Z,99.99
2017-06-08T06:42:42.420Z,99.99
2017-06-08T06:43:42.409Z,99.99
2017-06-08T06:44:42.082Z,99.99
2017-06-08T06:45:42.372Z,99.99
2017-06-08T06:46:42.393Z,99.99
2017-06-08T06:47:42.336Z,99.99
2017-06-08T06:48:42.320Z,99.99
2017-06-08T06:49:42.313Z,99.99
2017-06-08T06:50:42.301Z,99.99
2017-06-08T06:51:42.269Z,99.99
2017-06-08T06:52:42.259Z,99.99
2017-06-08T06:53:42.231Z,99.99
2017-06-08T06:54:42.221Z,99.99
2017-06-08T06:55:41.961Z,99.99
2017-06-08T06:56:41.881Z,99.99
2017-06-08T06:57:42.160Z,99.99
2017-06-08T06:58:41.847Z,99.99
2017-06-08T06:59:42.141Z,99.99
2017-06-08T07:00:41.820Z,99.99
2017-06-08T07:01:42.111Z,99.99
2017-06-08T07:02:42.080Z,99.99
2017-06-08T07:03:41.760Z,99.99
2017-06-08T07:04:42.056Z,99.99
2017-06-08T07:05:41.733Z,99.99
2017-06-08T07:06:42.009Z,99.99
2017-06-08T07:07:41.741Z,99.99
2017-06-08T07:08:41.979Z,99.99
2017-06-08T07:09:41.970Z,99.99
2017-06-08T07:10:41.951Z,99.99
2017-06-08T07:11:41.683Z,99.99
2017-06-08T07:12:41.942Z,99.99
2017-06-08T07:13:41.894Z,99.99
2017-06-08T07:14:41.568Z,99.99
2017-06-08T07:15:41.869Z,99.99
2017-06-08T07:16:41.845Z,99.99
2017-06-08T07:17:41.528Z,99.99
2017-06-08T07:18:41.821Z,99.99
2017-06-08T07:19:41.794Z,99.99
2017-06-08T07:20:41.787Z,99.99
2017-06-08T07:21:41.763Z,99.99
2017-06-08T07:22:41.747Z,99.99
2017-06-08T07:23:41.724Z,99.99
2017-06-08T07:24:41.712Z,99.99
2017-06-08T07:25:41.697Z,99.99
2017-06-08T07:26:41.794Z,99.99
2017-06-08T07:27:41.359Z,99.99
2017-06-08T07:28:41.640Z,99.99
2017-06-08T07:29:41.356Z,99.99
2017-06-08T07:30:41.613Z,99.99
2017-06-08T07:31:41.334Z,99.99
2017-06-08T07:32:41.576Z,99.99
2017-06-08T07:33:41.272Z,99.99
2017-06-08T07:34:41.542Z,99.99
2017-06-08T07:35:41.531Z,99.99
2017-06-08T07:36:41.201Z,99.99
2017-06-08T07:37:41.498Z,99.99
2017-06-08T07:38:41.482Z,99.99
2017-06-08T07:39:41.154Z,99.99
2017-06-08T07:40:41.444Z,99.99
2017-06-08T07:41:41.134Z,99.99
2017-06-08T07:42:41.418Z,99.99
2017-06-08T07:43:41.410Z,99.49
2017-06-08T07:44:41.380Z,99.99
2017-06-08T07:45:41.056Z,99.73
2017-06-08T07:46:41.361Z,99.53
2017-06-08T07:47:41.332Z,99.39
2017-06-08T07:48:41.002Z,99.15
2017-06-08T07:49:40.996Z,99.2
2017-06-08T07:50:41.283Z,99.29
2017-06-08T07:51:41.261Z,99.68
2017-06-08T07:52:41.327Z,99.68
2017-06-08T07:53:41.233Z,99.44
2017-06-08T07:54:41.213Z,99.58
2017-06-08T07:55:40.909Z,99.68
2017-06-08T07:56:41.186Z,99.96
2017-06-08T07:57:41.168Z,99.68
2017-06-08T07:58:41.155Z,99.49
2017-06-08T07:59:41.141Z,99.68
2017-06-08T08:00:41.202Z,99.96
2017-06-08T08:01:41.113Z,99.77
2017-06-08T08:02:41.087Z,99.77
2017-06-08T08:03:41.073Z,99.49
2017-06-08T08:04:41.059Z,99.96
2017-06-08T08:05:41.045Z,99.58
2017-06-08T08:06:41.024Z,99.68
2017-06-08T08:07:41.001Z,99.39
2017-06-08T08:08:41.011Z,99.29
2017-06-08T08:09:40.977Z,99.2
2017-06-08T08:10:40.953Z,98.72
2017-06-08T08:11:40.942Z,99.1
2017-06-08T08:12:40.930Z,98.72
2017-06-08T08:13:40.907Z,98.86
2017-06-08T08:14:40.898Z,98.77
2017-06-08T08:15:40.888Z,98.58
2017-06-08T08:16:40.865Z,98.1
2017-06-08T08:17:40.850Z,98.19
2017-06-08T08:18:40.822Z,97.52
2017-06-08T08:19:40.813Z,98.1
2017-06-08T08:20:40.802Z,98.53
2017-06-08T08:21:40.783Z,99.2
2017-06-08T08:22:40.765Z,99.1
2017-06-08T08:23:40.766Z,98.91
2017-06-08T08:24:40.423Z,99.15
2017-06-08T08:25:40.711Z,98.96
2017-06-08T08:26:40.709Z,98.29
2017-06-08T08:27:40.372Z,98.48
2017-06-08T08:28:40.661Z,98.77
2017-06-08T08:29:40.651Z,98.67
2017-06-08T08:30:40.643Z,98
2017-06-08T08:31:40.622Z,98.58
2017-06-08T08:32:40.601Z,98.38
2017-06-08T08:33:40.599Z,98.1
2017-06-08T08:34:40.261Z,98.1
2017-06-08T08:35:40.276Z,98.1
2017-06-08T08:36:40.548Z,98.1
2017-06-08T08:37:40.528Z,97.19
2017-06-08T08:38:40.529Z,96.03
2017-06-08T08:39:40.521Z,95.4
2017-06-08T08:40:40.483Z,94.45
2017-06-08T08:41:40.473Z,94.16
2017-06-08T08:42:40.453Z,94.83
2017-06-08T08:43:40.444Z,95.4
2017-06-08T08:44:40.428Z,95.75
2017-06-08T08:45:40.410Z,95.12
2017-06-08T08:46:40.394Z,94.11
2017-06-08T08:47:40.375Z,93.82
2017-06-08T08:48:40.364Z,93.87
2017-06-08T08:49:40.352Z,93.19
2017-06-08T08:50:40.034Z,93.58
2017-06-08T08:51:40.012Z,92.81
2017-06-08T08:52:40.016Z,93.39
2017-06-08T08:53:40.292Z,92.86
2017-06-08T08:54:40.283Z,91.13
2017-06-08T08:55:40.271Z,91.36
2017-06-08T08:56:39.942Z,91.46
2017-06-08T08:57:40.252Z,91.46
2017-06-08T08:58:40.225Z,90.73
2017-06-08T08:59:39.909Z,90.06
2017-06-08T09:00:40.201Z,89.39
2017-06-08T09:01:40.192Z,89.2
2017-06-08T09:02:40.174Z,89.39
2017-06-08T09:03:40.161Z,89.49
2017-06-08T09:04:39.838Z,88.91
2017-06-08T09:05:39.826Z,89.01
2017-06-08T09:06:40.112Z,89.01
2017-06-08T09:07:40.107Z,88.14
2017-06-08T09:08:39.796Z,87.37
2017-06-08T09:09:40.070Z,86.89
2017-06-08T09:10:40.075Z,86.99
2017-06-08T09:11:40.056Z,86.65
2017-06-08T09:12:39.829Z,86.65
2017-06-08T09:13:39.718Z,87.51
2017-06-08T09:14:40.018Z,86.65
2017-06-08T09:15:40.008Z,86.74
2017-06-08T09:16:39.985Z,86.45
2017-06-08T09:17:39.971Z,86.74
2017-06-08T09:18:39.961Z,86.07
2017-06-08T09:19:39.632Z,86.83
2017-06-08T09:20:39.934Z,86.93
2017-06-08T09:21:39.931Z,86.65
2017-06-08T09:22:39.896Z,85.78
2017-06-08T09:23:39.593Z,85.53
2017-06-08T09:24:39.883Z,85.19
2017-06-08T09:25:39.872Z,84.22
2017-06-08T09:26:39.882Z,83.69
2017-06-08T09:27:39.842Z,84.12
2017-06-08T09:28:39.531Z,84.7
2017-06-08T09:29:39.521Z,84.61
2017-06-08T09:30:39.593Z,84.03
2017-06-08T09:31:39.801Z,82.53
2017-06-08T09:32:39.795Z,82.39
2017-06-08T09:33:40.024Z,83.36
2017-06-08T09:34:39.833Z,83.16
2017-06-08T09:35:39.752Z,82.59
2017-06-08T09:36:39.804Z,82.1
2017-06-08T09:37:39.737Z,82.1
2017-06-08T09:38:39.791Z,82.49
2017-06-08T09:39:39.397Z,82.2
2017-06-08T09:40:39.390Z,81.72
2017-06-08T09:41:39.688Z,80.79
2017-06-08T09:42:39.723Z,80.76
2017-06-08T09:43:39.761Z,81.24
2017-06-08T09:44:39.356Z,81.33
2017-06-08T09:45:39.330Z,80.85
2017-06-08T09:46:39.613Z,81.33
2017-06-08T09:47:39.619Z,80.56
2017-06-08T09:48:39.291Z,80.89
2017-06-08T09:49:39.289Z,80.6
2017-06-08T09:50:39.571Z,80.51
2017-06-08T09:51:39.257Z,80.31
2017-06-08T09:52:39.552Z,80.51
2017-06-08T09:53:39.546Z,80.22
2017-06-08T09:54:39.542Z,79.87
2017-06-08T09:55:39.586Z,79.97
2017-06-08T09:56:39.503Z,79.24
2017-06-08T09:57:39.493Z,80.26
2017-06-08T09:58:39.181Z,80.06
2017-06-08T09:59:39.490Z,78.46
2017-06-08T10:00:39.160Z,77.59
2017-06-08T10:01:39.141Z,77.98
2017-06-08T10:02:39.131Z,78.08
2017-06-08T10:03:39.123Z,77.3
2017-06-08T10:04:39.418Z,76.57
2017-06-08T10:05:39.422Z,76.47
2017-06-08T10:06:39.093Z,77.01
2017-06-08T10:07:39.391Z,76.67
2017-06-08T10:08:39.382Z,77.5
2017-06-08T10:09:39.068Z,77.69
2017-06-08T10:10:39.044Z,77.4
2017-06-08T10:11:39.350Z,77.3
2017-06-08T10:12:39.362Z,78.27
2017-06-08T10:13:39.333Z,78.17
2017-06-08T10:14:39.324Z,78.08
2017-06-08T10:15:39.000Z,77.11
2017-06-08T10:16:38.984Z,77.01
2017-06-08T10:17:39.282Z,77.3
2017-06-08T10:18:39.303Z,76.67
2017-06-08T10:19:39.270Z,76.18
2017-06-08T10:20:39.273Z,75.64
2017-06-08T10:21:39.252Z,75.54
2017-06-08T10:22:39.239Z,75.64
2017-06-08T10:23:39.221Z,75.54
2017-06-08T10:24:39.216Z,75.54
2017-06-08T10:25:39.209Z,75.93
2017-06-08T10:26:38.889Z,75.93
2017-06-08T10:27:38.874Z,75.54
2017-06-08T10:28:39.175Z,76.67
2017-06-08T10:29:39.196Z,76.76
2017-06-08T10:30:39.149Z,76.95
2017-06-08T10:31:39.141Z,76.32
2017-06-08T10:32:39.131Z,76.37
2017-06-08T10:33:39.125Z,76.47
2017-06-08T10:34:39.113Z,76.57
2017-06-08T10:35:39.114Z,76.86
2017-06-08T10:36:39.115Z,77.01
2017-06-08T10:37:38.771Z,76.63
2017-06-08T10:38:38.763Z,76.43
2017-06-08T10:39:38.750Z,76.53
2017-06-08T10:40:38.733Z,76.34
2017-06-08T10:41:38.721Z,76.05
2017-06-08T10:42:39.023Z,75.79
2017-06-08T10:43:38.806Z,75.31
2017-06-08T10:44:38.693Z,75.35
2017-06-08T10:45:38.993Z,74.58
2017-06-08T10:46:38.970Z,75.16
2017-06-08T10:47:38.972Z,75.06
2017-06-08T10:48:38.657Z,76.37
2017-06-08T10:49:38.941Z,76.86
2017-06-08T10:50:38.954Z,76.37
2017-06-08T10:51:38.940Z,76.18
2017-06-08T10:52:38.911Z,76.67
2017-06-08T10:53:38.599Z,76.76
2017-06-08T10:54:38.895Z,76.95
2017-06-08T10:55:38.583Z,77.05
2017-06-08T10:56:38.564Z,76.28
2017-06-08T10:57:38.852Z,76.47
2017-06-08T10:58:38.860Z,76.32
2017-06-08T10:59:38.841Z,75.6
2017-06-08T11:00:38.820Z,75.51
2017-06-08T11:01:38.820Z,76.76
2017-06-08T11:02:38.497Z,77.3
2017-06-08T11:03:38.792Z,77.3
2017-06-08T11:04:38.791Z,77.78
2017-06-08T11:05:38.473Z,77.59
2017-06-08T11:06:38.759Z,78.08
2017-06-08T11:07:38.452Z,77.59
2017-06-08T11:08:38.743Z,77.69
2017-06-08T11:09:38.722Z,78.36
2017-06-08T11:10:38.711Z,78.17
2017-06-08T11:11:38.695Z,78.56
2017-06-08T11:12:38.689Z,78.94
2017-06-08T11:13:38.676Z,79.24
2017-06-08T11:14:38.667Z,79.77
2017-06-08T11:15:38.650Z,79.87
2017-06-08T11:16:38.646Z,79.87
2017-06-08T11:17:38.370Z,79.58
2017-06-08T11:18:38.619Z,78.85
2017-06-08T11:19:38.302Z,78.85
2017-06-08T11:20:38.592Z,79.04
2017-06-08T11:21:38.272Z,78.27
2017-06-08T11:22:38.575Z,78.17
2017-06-08T11:23:38.551Z,79.04
2017-06-08T11:24:38.551Z,78.56
2017-06-08T11:25:38.534Z,78.71
2017-06-08T11:26:38.215Z,79.39
2017-06-08T11:27:38.523Z,79.39
2017-06-08T11:28:38.502Z,79.49
2017-06-08T11:29:38.480Z,80.35
2017-06-08T11:30:38.170Z,81.02
2017-06-08T11:31:38.459Z,80.93
2017-06-08T11:32:38.462Z,81.8
2017-06-08T11:33:38.433Z,81.22
2017-06-08T11:34:38.468Z,81.02
2017-06-08T11:35:38.421Z,80.16
2017-06-08T11:36:38.197Z,80.16
2017-06-08T11:37:38.085Z,79.39
2017-06-08T11:38:38.379Z,78.71
2017-06-08T11:39:38.362Z,78.17
2017-06-08T11:40:38.134Z,78.56
2017-06-08T11:41:38.031Z,78.66
2017-06-08T11:42:38.392Z,78.27
2017-06-08T11:43:38.318Z,78.27
2017-06-08T11:44:38.021Z,78.27
2017-06-08T11:45:37.991Z,78.46
2017-06-08T11:46:38.391Z,78.27
2017-06-08T11:47:38.269Z,78.27
2017-06-08T11:48:38.346Z,77.88
2017-06-08T11:49:37.933Z,77.98
2017-06-08T11:50:38.340Z,77.69
2017-06-08T11:51:38.212Z,77.78
2017-06-08T11:52:38.002Z,77.98
2017-06-08T11:53:37.897Z,77.88
2017-06-08T11:54:38.232Z,77.88
2017-06-08T11:55:37.861Z,77.3
2017-06-08T11:56:38.172Z,78.08
2017-06-08T11:57:37.853Z,78.27
2017-06-08T11:58:38.130Z,78.17
2017-06-08T11:59:37.814Z,78.56
2017-06-08T12:00:38.118Z,78.27
2017-06-08T12:01:38.101Z,77.69
2017-06-08T12:02:38.080Z,78.36
2017-06-08T12:03:38.120Z,78.36
2017-06-08T12:04:38.061Z,78.08
2017-06-08T12:05:37.739Z,78.08
2017-06-08T12:06:38.041Z,78.27
2017-06-08T12:07:38.020Z,78.08
2017-06-08T12:08:38.021Z,78.36
2017-06-08T12:09:38.001Z,78.02
2017-06-08T12:10:37.994Z,78.31
2017-06-08T12:11:37.985Z,78.27
2017-06-08T12:12:37.962Z,78.27
2017-06-08T12:13:37.951Z,78.11
2017-06-08T12:14:37.947Z,78.31
2017-06-08T12:15:37.922Z,78.31
2017-06-08T12:16:37.911Z,78.21
2017-06-08T12:17:37.661Z,78.02
2017-06-08T12:18:37.894Z,78.41
2017-06-08T12:19:37.880Z,78.31
2017-06-08T12:20:37.880Z,78.59
2017-06-08T12:21:37.559Z,78.21
2017-06-08T12:22:37.839Z,78.31
2017-06-08T12:23:37.830Z,77.96
2017-06-08T12:24:37.513Z,77.57
2017-06-08T12:25:37.603Z,76.42
2017-06-08T12:26:37.800Z,76.7
2017-06-08T12:27:37.789Z,76.51
2017-06-08T12:28:37.459Z,76.61
2017-06-08T12:29:37.509Z,76.7
2017-06-08T12:30:37.740Z,76.67
2017-06-08T12:31:37.750Z,76.9
2017-06-08T12:32:37.417Z,76.8
2017-06-08T12:33:37.711Z,76.8
2017-06-08T12:34:37.693Z,76.06
2017-06-08T12:35:37.690Z,75.93
2017-06-08T12:36:37.669Z,76.22
2017-06-08T12:37:37.728Z,76.7
2017-06-08T12:38:37.347Z,76.12
2017-06-08T12:39:37.649Z,76.12
2017-06-08T12:40:37.633Z,76.32
2017-06-08T12:41:37.613Z,76.32
2017-06-08T12:42:37.617Z,76.03
2017-06-08T12:43:37.591Z,76.06
2017-06-08T12:44:37.584Z,75.39
2017-06-08T12:45:37.576Z,75.39
2017-06-08T12:46:37.561Z,75.1
2017-06-08T12:47:37.558Z,74.52
2017-06-08T12:48:37.589Z,74.46
2017-06-08T12:49:37.211Z,73.97
2017-06-08T12:50:37.580Z,74.3
2017-06-08T12:51:37.190Z,73.43
2017-06-08T12:52:37.187Z,73.04
2017-06-08T12:53:37.174Z,73.53
2017-06-08T12:54:37.488Z,72.95